Time;durP1;ratioP1;P1;durP2;ratioP2;P2;SDS_P1;SDS_P2;PMS_P1;PMS_P2;Temp;Humidity;BMP_temperature;BMP_pressure;BME280_temperature;BME280_humidity;BME280_pressure;Samples;Min_cycle;Max_cycle;Signal;HPM_P1;HPM_P2
2022/03/14 00:00:43;;;;;;;11.15;6.15;;;;;;;14.19;50.09;97360.56;4938007;28;20365;-80
2022/03/14 00:03:10;;;;;;;10.75;6.20;;;;;;;14.27;49.81;97372.34;4941914;28;20203;-80
2022/03/14 00:05:35;;;;;;;9.98;5.50;;;;;;;14.34;50.27;97384.13;4946780;28;20185;-79
2022/03/14 00:08:01;;;;;;;8.18;5.85;;;;;;;14.32;50.77;97386.22;4917151;28;20296;-80
2022/03/14 00:10:27;;;;;;;8.57;5.80;;;;;;;14.32;51.62;97390.69;4932700;28;20278;-80
2022/03/14 00:12:55;;;;;;;10.73;7.13;;;;;;;14.19;52.34;97402.47;4925803;28;20224;-79
2022/03/14 00:15:21;;;;;;;10.02;6.45;;;;;;;14.15;53.46;97401.41;4945290;28;20273;-80
2022/03/14 00:17:47;;;;;;;10.73;7.28;;;;;;;14.21;52.70;97409.00;4915683;28;20430;-80
2022/03/14 00:20:15;;;;;;;11.57;6.97;;;;;;;13.99;54.58;97418.94;4921355;28;20579;-79
2022/03/14 00:22:41;;;;;;;8.57;6.30;;;;;;;13.67;55.09;97439.03;4947053;28;20512;-79
2022/03/14 00:25:08;;;;;;;8.27;6.35;;;;;;;13.53;55.55;97443.16;4944049;28;20205;-81
2022/03/14 00:27:35;;;;;;;5.70;4.63;;;;;;;13.37;56.24;97438.94;4943855;28;20192;-78
2022/03/14 00:30:06;;;;;;;6.10;3.47;;;;;;;13.37;55.53;97449.41;4928494;28;20190;-79
2022/03/14 00:32:32;;;;;;;4.43;2.90;;;;;;;13.16;56.15;97448.47;4920308;28;20322;-80
2022/03/14 00:34:57;;;;;;;3.78;2.85;;;;;;;12.47;58.05;97450.88;4937214;28;20194;-80
2022/03/14 00:37:23;;;;;;;4.15;2.17;;;;;;;12.92;57.17;97460.13;4932100;28;20266;-78
2022/03/14 00:39:48;;;;;;;3.78;2.35;;;;;;;13.08;56.76;97462.81;4927153;28;20204;-79
2022/03/14 00:42:14;;;;;;;3.35;2.15;;;;;;;13.21;56.33;97462.38;4924728;28;20362;-81
2022/03/14 00:44:41;;;;;;;3.80;2.47;;;;;;;12.83;58.14;97466.06;4927488;28;20253;-79
2022/03/14 00:47:07;;;;;;;2.88;2.40;;;;;;;13.07;57.61;97464.66;4913664;28;20189;-80
2022/03/14 00:49:34;;;;;;;2.53;1.88;;;;;;;13.03;57.15;97460.16;4930610;28;20708;-81
2022/03/14 00:52:00;;;;;;;4.32;2.63;;;;;;;12.85;58.40;97467.38;4942916;28;20216;-80
2022/03/14 00:54:25;;;;;;;2.90;1.98;;;;;;;12.91;57.81;97468.19;4941652;28;20649;-80
2022/03/14 00:56:50;;;;;;;4.03;2.67;;;;;;;13.07;57.51;97482.94;4930908;28;20213;-81
2022/03/14 00:59:16;;;;;;;2.63;2.00;;;;;;;13.07;57.90;97503.06;4925168;28;20404;-81
2022/03/14 01:01:41;;;;;;;2.50;1.65;;;;;;;12.96;57.51;97496.97;4928870;28;20177;-81
2022/03/14 01:04:06;;;;;;;3.58;1.75;;;;;;;12.97;58.04;97501.19;4914634;28;20270;-81
2022/03/14 01:06:34;;;;;;;3.13;1.92;;;;;;;12.97;58.23;97498.56;4947247;28;20613;-81
2022/03/14 01:08:59;;;;;;;3.35;1.80;;;;;;;12.79;58.25;97504.97;4935320;28;20378;-81
2022/03/14 01:11:24;;;;;;;2.75;1.80;;;;;;;12.81;57.74;97502.88;4928749;28;20691;-79
2022/03/14 01:13:50;;;;;;;2.30;1.70;;;;;;;12.75;58.80;97511.75;4942830;28;20244;-81
2022/03/14 01:16:15;;;;;;;3.33;1.52;;;;;;;12.96;58.56;97517.09;4923052;28;20219;-80
2022/03/14 01:18:41;;;;;;;2.80;1.95;;;;;;;12.79;58.68;97522.47;4947916;28;20274;-79
2022/03/14 01:21:06;;;;;;;2.70;1.90;;;;;;;12.62;59.07;97522.59;4933024;28;20097;-81
2022/03/14 01:23:32;;;;;;;2.60;1.60;;;;;;;12.65;59.12;97519.50;4912371;28;20190;-81
2022/03/14 01:25:57;;;;;;;1.98;1.40;;;;;;;12.49;59.26;97521.16;4914116;28;20143;-81
2022/03/14 01:28:22;;;;;;;2.15;1.40;;;;;;;12.43;59.95;97520.34;4927356;28;20625;-82
2022/03/14 01:30:48;;;;;;;1.60;1.30;;;;;;;12.32;59.81;97535.13;4908571;28;20339;-80
2022/03/14 01:33:13;;;;;;;1.83;1.27;;;;;;;12.27;59.75;97542.09;4929715;28;20282;-82
2022/03/14 01:35:40;;;;;;;1.85;1.35;;;;;;;12.06;60.68;97547.09;4927085;28;20793;-82
2022/03/14 01:38:06;;;;;;;2.28;1.20;;;;;;;12.21;59.95;97543.09;4937246;28;20180;-82
2022/03/14 01:40:32;;;;;;;2.17;1.83;;;;;;;12.30;59.71;97549.44;4913603;28;20206;-83
2022/03/14 01:42:57;;;;;;;1.73;1.15;;;;;;;12.20;60.33;97542.31;4921179;28;20174;-83
2022/03/14 01:45:23;;;;;;;2.47;1.50;;;;;;;12.09;60.59;97548.44;4908163;28;20276;-82
2022/03/14 01:47:49;;;;;;;2.67;1.50;;;;;;;12.31;59.83;97566.69;4926509;28;20199;-83
2022/03/14 01:50:15;;;;;;;2.88;1.67;;;;;;;12.29;60.62;97560.94;4914873;28;20305;-80
2022/03/14 01:52:41;;;;;;;1.95;1.05;;;;;;;12.24;59.92;97559.06;4912875;28;20648;-81
2022/03/14 01:55:09;;;;;;;2.88;1.42;;;;;;;12.24;60.61;97563.50;4925516;28;20173;-82
2022/03/14 01:57:35;;;;;;;3.05;1.30;;;;;;;12.13;60.93;97559.97;4927194;28;20630;-81
2022/03/14 02:00:01;;;;;;;1.60;1.27;;;;;;;12.11;60.55;97564.66;4924911;28;20203;-82
2022/03/14 02:02:27;;;;;;;2.80;1.70;;;;;;;12.18;60.57;97567.84;4912030;28;20198;-80
2022/03/14 02:04:53;;;;;;;1.80;1.10;;;;;;;12.13;60.62;97557.38;4908413;28;20209;-81
2022/03/14 02:07:20;;;;;;;2.67;1.65;;;;;;;12.00;60.95;97561.16;4959767;28;20577;-82
2022/03/14 02:09:45;;;;;;;2.67;1.40;;;;;;;11.99;61.24;97562.16;4906530;28;20287;-80
2022/03/14 02:12:11;;;;;;;1.65;1.20;;;;;;;12.10;61.06;97558.66;4939628;28;20269;-80
2022/03/14 02:14:39;;;;;;;3.17;1.27;;;;;;;12.22;60.57;97578.59;4923073;28;20690;-81
2022/03/14 02:17:15;;;;;;;1.85;1.15;;;;;;;12.00;60.66;97563.75;4938487;28;20264;-81
2022/03/14 02:19:41;;;;;;;2.20;1.20;;;;;;;12.06;60.74;97562.00;4924087;28;20196;-82
2022/03/14 02:22:14;;;;;;;1.90;1.10;;;;;;;11.92;61.81;97572.00;4910632;28;20166;-82
2022/03/14 02:24:45;;;;;;;2.17;1.27;;;;;;;11.97;60.95;97569.47;4928181;28;20285;-81
2022/03/14 02:27:12;;;;;;;1.83;1.30;;;;;;;11.63;62.49;97561.69;4933770;28;20316;-80
2022/03/14 02:29:39;;;;;;;2.33;1.42;;;;;;;11.94;61.20;97568.13;4928503;28;20933;-80
2022/03/14 02:32:05;;;;;;;2.22;1.35;;;;;;;11.99;61.85;97570.00;4926431;28;20721;-81
2022/03/14 02:34:30;;;;;;;2.25;1.58;;;;;;;11.94;61.41;97575.16;4938259;28;20208;-81
2022/03/14 02:36:56;;;;;;;2.25;1.58;;;;;;;12.04;61.48;97570.06;4912575;28;20172;-81
2022/03/14 02:39:21;;;;;;;1.40;1.10;;;;;;;11.81;61.67;97579.69;4910025;28;20283;-80
2022/03/14 02:41:47;;;;;;;2.03;1.20;;;;;;;11.69;62.42;97581.63;4904153;28;20809;-80
2022/03/14 02:44:13;;;;;;;1.98;1.20;;;;;;;11.85;61.87;97589.63;4908165;28;20210;-80
2022/03/14 02:46:40;;;;;;;1.83;1.00;;;;;;;11.93;61.48;97604.91;4922531;28;20282;-79
2022/03/14 02:49:06;;;;;;;2.22;1.23;;;;;;;11.80;61.61;97593.75;4921711;28;20192;-80
2022/03/14 02:51:34;;;;;;;1.80;1.00;;;;;;;11.84;61.17;97594.06;4922449;28;20278;-79
2022/03/14 02:54:09;;;;;;;2.67;1.88;;;;;;;11.91;61.59;97593.91;4929119;28;20057;-80
2022/03/14 02:56:35;;;;;;;2.33;1.45;;;;;;;11.99;60.86;97601.31;4935674;28;20587;-80
2022/03/14 02:59:01;;;;;;;2.60;1.10;;;;;;;11.94;61.51;97599.44;4934274;28;20245;-80
2022/03/14 03:01:27;;;;;;;1.73;1.25;;;;;;;11.80;61.46;97600.78;4907648;28;20193;-80
2022/03/14 03:03:52;;;;;;;2.10;1.40;;;;;;;11.79;62.21;97601.84;4915639;28;20266;-80
2022/03/14 03:06:22;;;;;;;2.50;1.20;;;;;;;11.83;62.50;97602.13;4925790;28;20579;-80
2022/03/14 03:08:52;;;;;;;1.73;1.25;;;;;;;11.80;61.68;97600.78;4913747;28;20170;-79
2022/03/14 03:11:18;;;;;;;1.98;1.30;;;;;;;11.91;62.14;97614.78;4930076;28;20203;-79
2022/03/14 03:13:44;;;;;;;2.47;1.50;;;;;;;11.72;62.66;97615.06;4930889;28;20212;-79
2022/03/14 03:16:13;;;;;;;2.00;1.25;;;;;;;11.84;61.63;97629.78;4912304;28;20170;-79
2022/03/14 03:18:38;;;;;;;2.13;1.30;;;;;;;11.80;61.68;97632.88;4926610;28;20370;-79
2022/03/14 03:21:04;;;;;;;3.17;1.45;;;;;;;11.75;61.71;97645.84;4916015;28;20166;-79
2022/03/14 03:23:30;;;;;;;2.63;1.40;;;;;;;11.80;61.92;97632.88;4928145;28;20195;-78
2022/03/14 03:25:56;;;;;;;2.22;1.38;;;;;;;11.86;61.51;97641.59;4946374;28;20283;-79
2022/03/14 03:28:22;;;;;;;1.95;1.33;;;;;;;11.75;61.22;97642.47;4931553;28;20212;-79
2022/03/14 03:30:47;;;;;;;2.70;1.45;;;;;;;11.74;61.65;97644.28;4948035;28;20792;-79
2022/03/14 03:33:12;;;;;;;2.95;1.75;;;;;;;11.84;60.83;97656.69;4954195;28;20173;-79
2022/03/14 03:35:38;;;;;;;2.05;1.73;;;;;;;11.77;61.73;97664.69;4935569;28;20211;-79
2022/03/14 03:38:03;;;;;;;2.47;1.63;;;;;;;11.81;61.33;97671.00;4935109;28;20274;-79
2022/03/14 03:40:29;;;;;;;3.53;1.67;;;;;;;11.66;62.02;97680.44;4935957;28;20223;-79
2022/03/14 03:42:54;;;;;;;2.97;1.90;;;;;;;11.58;61.57;97686.81;4951546;28;20691;-79
2022/03/14 03:45:20;;;;;;;3.30;2.38;;;;;;;11.49;61.71;97683.81;4943842;28;20671;-78
2022/03/14 03:47:45;;;;;;;4.65;2.90;;;;;;;11.42;61.82;97702.22;4933718;28;20204;-78
2022/03/14 03:50:11;;;;;;;4.93;2.92;;;;;;;11.39;62.45;97726.16;4919650;28;20187;-79
2022/03/14 03:52:36;;;;;;;5.53;3.40;;;;;;;11.30;62.43;97719.75;4968776;28;20330;-78
2022/03/14 03:55:03;;;;;;;5.32;3.33;;;;;;;11.37;61.29;97738.63;4935700;28;20474;-79
2022/03/14 03:57:30;;;;;;;5.82;4.00;;;;;;;11.54;60.70;97730.06;4935058;28;20258;-78
2022/03/14 03:59:55;;;;;;;6.82;3.60;;;;;;;11.50;61.21;97741.97;4935713;28;20304;-79
2022/03/14 04:02:20;;;;;;;6.05;3.35;;;;;;;11.39;61.08;97744.41;4919939;28;20461;-79
2022/03/14 04:04:47;;;;;;;6.13;3.65;;;;;;;11.43;60.66;97761.19;4951383;28;20220;-79
2022/03/14 04:07:13;;;;;;;5.10;3.65;;;;;;;11.40;61.68;97761.63;4968545;28;20687;-79
2022/03/14 04:09:39;;;;;;;6.35;4.40;;;;;;;11.44;60.81;97770.56;4969160;28;20258;-79
2022/03/14 04:12:05;;;;;;;6.03;3.72;;;;;;;11.43;60.99;97771.59;4934966;28;20281;-79
2022/03/14 04:14:30;;;;;;;6.05;3.90;;;;;;;11.50;61.11;97774.06;4915812;28;20627;-79
2022/03/14 04:16:55;;;;;;;7.82;4.43;;;;;;;11.44;61.57;97767.97;4925159;28;20211;-79
2022/03/14 04:19:21;;;;;;;7.47;4.20;;;;;;;11.46;61.00;97772.94;4935191;28;20309;-79
2022/03/14 04:21:48;;;;;;;5.38;3.38;;;;;;;11.41;60.98;97772.84;4934228;28;20510;-79
2022/03/14 04:24:14;;;;;;;7.32;3.85;;;;;;;11.46;60.65;97780.75;4949073;28;20158;-78
2022/03/14 04:26:39;;;;;;;7.82;4.68;;;;;;;11.31;61.58;97789.13;4935530;28;20215;-79
2022/03/14 04:29:05;;;;;;;9.07;4.55;;;;;;;11.31;61.68;97798.75;4951073;28;20331;-79
2022/03/14 04:31:31;;;;;;;8.48;4.05;;;;;;;11.34;61.58;97791.25;4932980;28;20270;-79
2022/03/14 04:33:57;;;;;;;8.40;4.60;;;;;;;11.12;61.33;97792.94;4930121;28;20312;-78
2022/03/14 04:36:23;;;;;;;7.90;4.32;;;;;;;11.11;61.54;97786.16;4934433;28;20458;-78
2022/03/14 04:38:48;;;;;;;7.50;4.15;;;;;;;11.09;61.79;97788.16;4935620;28;20211;-79
2022/03/14 04:41:14;;;;;;;6.50;3.38;;;;;;;11.13;61.58;97791.91;4922087;28;20111;-79
2022/03/14 04:43:39;;;;;;;6.82;3.67;;;;;;;11.19;60.98;97796.19;4937630;28;20274;-78
2022/03/14 04:46:04;;;;;;;6.45;3.20;;;;;;;11.14;60.78;97802.09;4917213;28;20284;-80
2022/03/14 04:48:30;;;;;;;5.93;3.72;;;;;;;10.96;62.21;97790.03;4930902;28;20689;-79
2022/03/14 04:50:56;;;;;;;5.68;3.00;;;;;;;10.98;61.66;97795.78;4948712;28;20258;-79
2022/03/14 04:53:22;;;;;;;7.22;3.25;;;;;;;10.87;61.56;97797.41;4934915;28;20763;-78
2022/03/14 04:55:47;;;;;;;6.10;2.88;;;;;;;11.12;61.34;97804.16;4934285;28;20463;-79
2022/03/14 04:58:14;;;;;;;8.02;2.83;;;;;;;11.12;61.04;97805.97;4933981;28;20192;-80
2022/03/14 05:00:40;;;;;;;6.28;2.63;;;;;;;11.01;61.52;97797.94;4915086;28;20254;-79
2022/03/14 05:03:07;;;;;;;6.47;3.00;;;;;;;11.05;61.35;97796.47;4932760;28;20169;-79
2022/03/14 05:05:32;;;;;;;4.97;2.30;;;;;;;11.14;61.17;97793.47;4950542;28;20162;-79
2022/03/14 05:07:58;;;;;;;5.93;2.13;;;;;;;11.05;61.39;97809.50;4928445;28;20279;-79
2022/03/14 05:10:23;;;;;;;8.43;2.50;;;;;;;11.05;60.61;97803.47;4930609;28;20307;-79
2022/03/14 05:12:49;;;;;;;6.15;2.40;;;;;;;10.94;61.27;97804.31;4947675;28;20389;-79
2022/03/14 05:15:16;;;;;;;3.80;1.85;;;;;;;11.11;61.67;97812.22;4916878;28;20208;-80
2022/03/14 05:17:42;;;;;;;5.25;2.17;;;;;;;11.07;60.53;97822.31;4933893;28;20261;-79
2022/03/14 05:20:09;;;;;;;4.57;1.77;;;;;;;11.00;61.84;97829.44;4949808;28;20806;-79
2022/03/14 05:22:49;;;;;;;5.28;2.05;;;;;;;10.92;61.79;97835.03;4927734;28;20270;-79
2022/03/14 05:25:16;;;;;;;7.38;2.67;;;;;;;11.02;60.85;97835.25;4949808;28;20205;-79
2022/03/14 05:27:41;;;;;;;8.82;3.50;;;;;;;11.00;61.25;97842.47;4932817;28;20169;-79
2022/03/14 05:30:08;;;;;;;5.35;2.83;;;;;;;11.01;61.36;97850.06;4932841;28;20192;-79
2022/03/14 05:32:35;;;;;;;8.52;2.30;;;;;;;10.92;61.15;97850.66;4946531;28;20295;-79
2022/03/14 05:35:00;;;;;;;4.95;2.70;;;;;;;10.99;61.95;97859.16;4917477;28;20207;-79
2022/03/14 05:37:26;;;;;;;8.95;2.40;;;;;;;10.95;61.14;97845.78;4914239;28;20200;-80
2022/03/14 05:39:51;;;;;;;6.88;2.20;;;;;;;10.72;62.00;97848.41;4950048;28;20165;-79
2022/03/14 05:42:16;;;;;;;7.63;2.95;;;;;;;10.79;62.00;97867.31;4939407;28;20590;-80
2022/03/14 05:44:45;;;;;;;5.15;2.20;;;;;;;11.06;61.84;97878.03;4933208;28;20223;-79
2022/03/14 05:47:11;;;;;;;5.07;2.22;;;;;;;11.10;61.49;97886.19;4965320;28;20704;-79
2022/03/14 05:49:37;;;;;;;4.07;1.80;;;;;;;11.12;60.59;97891.97;4933081;28;20129;-80
2022/03/14 05:52:03;;;;;;;4.15;1.73;;;;;;;11.00;61.84;97884.16;4933291;28;20697;-79
2022/03/14 05:54:28;;;;;;;5.20;2.10;;;;;;;10.99;61.88;97888.59;4948779;28;20208;-80
2022/03/14 05:56:54;;;;;;;5.10;2.05;;;;;;;10.93;61.53;97892.09;4943437;28;20278;-79
2022/03/14 05:59:20;;;;;;;5.78;2.15;;;;;;;10.99;61.12;97899.00;4960880;28;20137;-79
2022/03/14 06:01:48;;;;;;;6.50;1.65;;;;;;;10.94;61.63;97893.69;4931832;28;20199;-79
2022/03/14 06:04:14;;;;;;;3.70;1.88;;;;;;;10.89;61.55;97898.00;4948693;28;20278;-79
2022/03/14 06:06:39;;;;;;;4.43;1.88;;;;;;;10.97;61.29;97901.06;4931695;28;20239;-79
2022/03/14 06:09:05;;;;;;;7.50;1.63;;;;;;;10.99;61.17;97914.66;4933288;28;20193;-79
2022/03/14 06:11:30;;;;;;;3.53;1.55;;;;;;;10.99;61.10;97916.47;4912666;28;20213;-80
2022/03/14 06:13:56;;;;;;;3.63;1.67;;;;;;;11.02;60.78;97919.41;4910254;28;20257;-80
2022/03/14 06:16:22;;;;;;;4.22;1.77;;;;;;;10.76;62.17;97922.47;4928168;28;20293;-79
2022/03/14 06:18:47;;;;;;;8.73;2.35;;;;;;;11.00;61.60;97921.44;4948239;28;20258;-79
2022/03/14 06:21:12;;;;;;;6.50;2.50;;;;;;;10.88;61.17;97928.47;4932390;28;20366;-79
2022/03/14 06:23:38;;;;;;;5.88;2.63;;;;;;;11.01;61.21;97938.66;4925443;28;20269;-79
2022/03/14 06:26:03;;;;;;;5.30;2.35;;;;;;;11.01;61.39;97932.66;4938286;28;20606;-79
2022/03/14 06:28:29;;;;;;;10.63;2.97;;;;;;;11.07;61.29;97939.59;4925398;28;20215;-80
2022/03/14 06:30:54;;;;;;;7.50;2.38;;;;;;;11.02;61.32;97952.50;4944623;28;20257;-79
2022/03/14 06:33:20;;;;;;;4.90;2.53;;;;;;;11.13;61.35;97943.88;4929320;28;20262;-79
2022/03/14 06:35:46;;;;;;;3.95;2.10;;;;;;;11.15;61.44;97943.63;4932155;28;20684;-79
2022/03/14 06:38:11;;;;;;;6.88;2.28;;;;;;;11.13;61.43;97945.69;4948234;28;20244;-78
2022/03/14 06:40:38;;;;;;;4.47;2.20;;;;;;;11.12;61.13;97954.50;4932463;28;20769;-78
2022/03/14 06:43:05;;;;;;;8.40;2.47;;;;;;;11.18;60.91;97956.22;4935574;28;20519;-79
2022/03/14 06:45:31;;;;;;;7.68;2.20;;;;;;;11.24;61.05;97968.31;4924665;28;20641;-79
2022/03/14 06:47:57;;;;;;;6.55;2.20;;;;;;;11.28;60.75;97960.88;4916047;28;20196;-79
2022/03/14 06:50:23;;;;;;;5.13;2.30;;;;;;;11.18;60.60;97951.00;4928715;28;20215;-79
2022/03/14 06:52:49;;;;;;;4.88;2.58;;;;;;;11.28;61.22;97966.84;4931155;28;20184;-79
2022/03/14 06:55:15;;;;;;;5.03;2.00;;;;;;;11.26;60.58;97966.31;4912065;28;20294;-79
2022/03/14 06:57:40;;;;;;;5.85;2.50;;;;;;;11.24;60.86;97968.31;4943386;28;20295;-79
2022/03/14 07:00:07;;;;;;;5.28;2.40;;;;;;;11.18;61.17;97967.44;4932122;28;20278;-79
2022/03/14 07:02:35;;;;;;;6.43;2.60;;;;;;;11.16;61.66;97976.50;4932630;28;20686;-79
2022/03/14 07:05:01;;;;;;;7.45;3.30;;;;;;;11.31;60.96;97976.03;4915780;28;20686;-79
2022/03/14 07:07:26;;;;;;;6.22;2.80;;;;;;;11.20;61.26;97972.41;4923142;28;20260;-79
2022/03/14 07:09:52;;;;;;;5.47;2.30;;;;;;;11.29;61.19;97975.47;4948298;28;20275;-79
2022/03/14 07:12:17;;;;;;;4.68;2.53;;;;;;;11.29;61.86;97984.06;4932617;28;20721;-78
2022/03/14 07:14:42;;;;;;;6.55;2.47;;;;;;;11.20;60.98;97983.63;4948463;28;20169;-78
2022/03/14 07:17:08;;;;;;;5.65;2.78;;;;;;;11.14;61.12;97988.97;4947767;28;20312;-79
2022/03/14 07:19:34;;;;;;;6.63;3.00;;;;;;;11.08;62.02;97995.09;4925917;28;20638;-78
2022/03/14 07:21:59;;;;;;;7.50;3.28;;;;;;;11.13;61.50;98000.41;4929141;28;20200;-79
2022/03/14 07:24:25;;;;;;;13.35;3.78;;;;;;;11.01;61.97;98014.22;4948156;28;20208;-79
2022/03/14 07:26:51;;;;;;;6.75;3.20;;;;;;;11.15;61.29;98011.41;4932876;28;20204;-79
2022/03/14 07:29:17;;;;;;;7.25;3.13;;;;;;;11.06;61.84;98014.34;4943762;28;20682;-78
2022/03/14 07:31:43;;;;;;;6.32;3.50;;;;;;;10.57;62.64;98021.53;4946779;28;20196;-78
2022/03/14 07:34:09;;;;;;;8.00;4.03;;;;;;;11.03;61.59;98020.00;4927317;28;20257;-78
2022/03/14 07:36:34;;;;;;;8.45;3.50;;;;;;;11.05;61.61;98027.59;4932389;28;20274;-79
2022/03/14 07:39:01;;;;;;;9.50;4.35;;;;;;;11.05;61.81;98023.19;4932703;28;20339;-79
2022/03/14 07:41:26;;;;;;;4.93;3.38;;;;;;;11.42;60.81;98024.78;4930571;28;20590;-78
2022/03/14 07:43:52;;;;;;;8.68;3.03;;;;;;;11.31;60.57;98041.19;4916173;28;20165;-79
2022/03/14 07:46:18;;;;;;;8.70;3.28;;;;;;;11.19;62.00;98033.38;4932247;28;20456;-78
2022/03/14 07:48:43;;;;;;;4.47;2.40;;;;;;;11.49;61.41;98051.50;4927238;28;20209;-79
2022/03/14 07:51:11;;;;;;;4.40;2.58;;;;;;;11.48;61.16;98049.94;4932119;28;20250;-78
2022/03/14 07:53:36;;;;;;;5.15;2.38;;;;;;;11.42;60.59;98059.44;4931047;28;20204;-78
2022/03/14 07:56:03;;;;;;;4.13;2.03;;;;;;;11.25;61.21;98056.72;4942659;28;20210;-78
2022/03/14 07:58:29;;;;;;;5.32;2.63;;;;;;;11.32;61.15;98058.44;4932068;28;20272;-79
2022/03/14 08:00:54;;;;;;;5.68;2.65;;;;;;;11.28;60.92;98054.72;4931969;28;20295;-78
2022/03/14 08:03:21;;;;;;;7.35;2.50;;;;;;;11.38;60.18;98058.34;4932215;28;20615;-79
2022/03/14 08:05:47;;;;;;;4.28;2.28;;;;;;;11.72;59.68;98068.97;4930597;28;20200;-78
2022/03/14 08:08:15;;;;;;;6.28;2.05;;;;;;;11.61;59.99;98074.97;4930124;28;20188;-78
2022/03/14 08:10:41;;;;;;;5.53;2.28;;;;;;;11.71;59.67;98083.03;4947621;28;20279;-78
2022/03/14 08:13:06;;;;;;;4.53;2.22;;;;;;;11.73;59.56;98085.41;4925251;28;20252;-78
2022/03/14 08:15:33;;;;;;;3.35;1.95;;;;;;;11.41;60.61;98083.97;4945569;28;20286;-79
2022/03/14 08:18:00;;;;;;;3.92;1.95;;;;;;;11.37;60.63;98092.44;4928539;28;20182;-78
2022/03/14 08:20:26;;;;;;;5.25;1.95;;;;;;;11.58;60.12;98088.47;4943058;28;20381;-78
2022/03/14 08:22:53;;;;;;;4.60;1.17;;;;;;;11.84;58.85;98096.84;4934973;28;20283;-79
2022/03/14 08:25:20;;;;;;;4.28;2.08;;;;;;;11.91;59.09;98095.75;4916839;28;20183;-79
2022/03/14 08:27:46;;;;;;;3.70;1.90;;;;;;;11.72;60.03;98094.25;4934323;28;20837;-79
2022/03/14 08:30:12;;;;;;;6.10;1.90;;;;;;;11.86;59.53;98094.78;4916516;28;20297;-79
2022/03/14 08:32:41;;;;;;;5.18;1.88;;;;;;;11.88;59.71;98105.81;4911110;28;20302;-79
2022/03/14 08:35:09;;;;;;;4.68;1.60;;;;;;;11.88;59.33;98106.59;4930647;28;20320;-78
2022/03/14 08:37:36;;;;;;;3.83;1.40;;;;;;;11.62;59.64;98115.72;4934154;28;20294;-79
2022/03/14 08:40:06;;;;;;;2.83;1.42;;;;;;;11.62;59.26;98113.09;4949482;28;20630;-78
2022/03/14 08:42:32;;;;;;;3.20;1.13;;;;;;;11.85;59.09;98120.09;4901503;28;20271;-79
2022/03/14 08:44:57;;;;;;;2.55;1.10;;;;;;;11.94;58.69;98118.78;4913672;28;20185;-78
2022/03/14 08:47:23;;;;;;;7.47;1.98;;;;;;;11.78;59.29;98130.66;4929769;28;20182;-78
2022/03/14 08:49:49;;;;;;;3.95;1.10;;;;;;;11.42;59.92;98123.84;4929770;28;20705;-79
2022/03/14 08:52:14;;;;;;;3.13;1.45;;;;;;;11.62;59.26;98129.53;4934418;28;20185;-78
2022/03/14 08:54:40;;;;;;;5.78;1.35;;;;;;;11.87;59.31;98133.72;4933962;28;20282;-79
2022/03/14 08:57:05;;;;;;;3.97;1.20;;;;;;;11.86;59.83;98128.72;4914516;28;20286;-78
2022/03/14 08:59:30;;;;;;;6.10;1.27;;;;;;;11.98;58.96;98134.75;4932462;28;20167;-79
2022/03/14 09:01:56;;;;;;;5.55;1.23;;;;;;;12.12;58.60;98135.31;4949502;28;20676;-79
2022/03/14 09:04:21;;;;;;;4.60;1.70;;;;;;;12.35;59.26;98142.28;4927776;28;20206;-78
2022/03/14 09:06:47;;;;;;;4.90;1.55;;;;;;;12.41;58.19;98138.75;4917637;28;20282;-78
2022/03/14 09:09:12;;;;;;;7.43;1.15;;;;;;;12.63;57.97;98143.31;4945852;28;20170;-79
2022/03/14 09:11:39;;;;;;;6.70;1.30;;;;;;;12.57;57.35;98136.44;4950426;28;20209;-78
2022/03/14 09:14:04;;;;;;;3.83;0.93;;;;;;;12.54;58.21;98146.31;4950427;28;20192;-78
2022/03/14 09:16:30;;;;;;;5.10;1.23;;;;;;;12.64;57.88;98148.31;4950401;28;20169;-78
2022/03/14 09:18:55;;;;;;;2.67;0.85;;;;;;;12.98;56.98;98152.84;4950032;28;20196;-79
2022/03/14 09:21:21;;;;;;;2.35;1.00;;;;;;;13.06;56.16;98155.84;4949392;28;20354;-79
2022/03/14 09:23:47;;;;;;;3.67;0.93;;;;;;;13.34;56.05;98167.31;4931950;28;20306;-79
2022/03/14 09:26:12;;;;;;;2.35;0.98;;;;;;;13.35;55.24;98173.31;4933146;28;20197;-79
2022/03/14 09:28:40;;;;;;;2.65;1.10;;;;;;;13.08;55.11;98168.69;4934076;28;20779;-79
2022/03/14 09:31:05;;;;;;;4.03;1.52;;;;;;;13.39;55.24;98169.22;4932491;28;20226;-79
2022/03/14 09:33:31;;;;;;;4.38;1.30;;;;;;;13.07;54.49;98169.72;4966505;28;20551;-79
2022/03/14 09:35:56;;;;;;;2.88;0.70;;;;;;;12.85;55.46;98180.84;4933410;28;20291;-78
2022/03/14 09:38:22;;;;;;;3.03;1.05;;;;;;;12.85;55.78;98165.19;4917624;28;20276;-78
2022/03/14 09:40:50;;;;;;;2.70;1.00;;;;;;;12.76;55.61;98171.00;4931328;28;20196;-78
2022/03/14 09:43:17;;;;;;;3.53;0.95;;;;;;;13.14;54.82;98175.56;4921210;28;20188;-79
2022/03/14 09:45:46;;;;;;;4.95;1.02;;;;;;;12.96;54.54;98178.41;4949706;28;20301;-78
2022/03/14 09:48:14;;;;;;;3.20;1.33;;;;;;;12.95;54.33;98184.66;4917011;28;20252;-78
2022/03/14 09:50:41;;;;;;;4.25;1.42;;;;;;;13.22;53.59;98179.66;4946829;28;20195;-78
2022/03/14 09:53:09;;;;;;;2.85;1.15;;;;;;;12.98;55.35;98187.59;4916891;28;20215;-78
2022/03/14 09:55:40;;;;;;;3.55;0.90;;;;;;;13.01;55.71;98199.44;4945941;28;20189;-77
2022/03/14 09:58:09;;;;;;;4.05;0.90;;;;;;;13.10;54.55;98193.56;4923878;28;20259;-79
2022/03/14 10:00:34;;;;;;;3.45;1.00;;;;;;;13.24;54.58;98206.34;4925852;28;20328;-78
2022/03/14 10:03:00;;;;;;;5.38;1.50;;;;;;;13.27;54.50;98214.50;4911313;28;20392;-79
2022/03/14 10:05:25;;;;;;;2.03;0.85;;;;;;;13.38;53.57;98204.25;4913958;28;20336;-79
2022/03/14 10:07:50;;;;;;;1.73;1.08;;;;;;;13.61;52.93;98217.19;4916954;28;20231;-78
2022/03/14 10:10:16;;;;;;;2.35;0.85;;;;;;;13.68;53.28;98225.66;4917507;28;20294;-78
2022/03/14 10:12:43;;;;;;;2.60;1.10;;;;;;;13.62;53.91;98231.88;4932698;28;20751;-78
2022/03/14 10:15:09;;;;;;;4.80;1.23;;;;;;;13.63;53.77;98227.44;4948592;28;20251;-78
2022/03/14 10:17:35;;;;;;;3.55;1.23;;;;;;;13.59;52.20;98227.13;4930526;28;20661;-79
2022/03/14 10:20:02;;;;;;;3.30;1.00;;;;;;;13.65;52.84;98234.00;4949023;28;20246;-79
2022/03/14 10:22:37;;;;;;;2.30;1.55;;;;;;;13.63;52.43;98235.28;4930989;28;20412;-79
2022/03/14 10:25:13;;;;;;;2.93;1.20;;;;;;;13.52;53.36;98229.09;4949796;28;20259;-79
2022/03/14 10:27:45;;;;;;;3.60;2.22;;;;;;;13.67;51.30;98239.00;4931516;28;20482;-79
2022/03/14 10:30:25;;;;;;;4.80;1.85;;;;;;;13.57;51.52;98234.41;4932131;28;20272;-78
2022/03/14 10:33:10;;;;;;;4.25;2.38;;;;;;;13.78;51.73;98250.44;4949705;28;20274;-79
2022/03/14 10:35:37;;;;;;;3.60;1.80;;;;;;;13.51;51.81;98242.41;4913574;28;20292;-78
2022/03/14 10:38:05;;;;;;;9.32;2.65;;;;;;;13.58;51.88;98241.22;4916835;28;20177;-79
2022/03/14 10:40:34;;;;;;;3.42;2.38;;;;;;;13.58;52.09;98249.06;4932351;28;20341;-78
2022/03/14 10:43:00;;;;;;;5.90;2.10;;;;;;;13.72;52.01;98243.53;4933082;28;20201;-79
2022/03/14 10:45:26;;;;;;;4.05;2.05;;;;;;;13.90;53.06;98245.91;4908836;28;20369;-78
2022/03/14 10:47:57;;;;;;;5.15;2.33;;;;;;;13.79;52.05;98258.03;4917247;28;20315;-78
2022/03/14 10:50:37;;;;;;;4.07;1.90;;;;;;;13.75;53.37;98256.13;4934346;28;21258;-78
2022/03/14 10:53:13;;;;;;;4.80;1.88;;;;;;;14.26;51.39;98264.75;4916756;28;20697;-79
2022/03/14 10:55:45;;;;;;;3.85;1.60;;;;;;;14.20;52.65;98263.88;4932428;28;20200;-79
2022/03/14 10:58:14;;;;;;;3.70;1.50;;;;;;;13.99;51.12;98262.78;4913822;28;20282;-78
2022/03/14 11:00:49;;;;;;;2.90;1.92;;;;;;;13.69;51.48;98268.34;4931635;28;20330;-78
2022/03/14 11:03:21;;;;;;;;;;;;;;;13.77;51.62;98267.16;4948725;28;20544;-78
2022/03/14 11:05:46;;;;;;;2.88;1.52;;;;;;;14.47;50.72;98263.19;4930115;28;20283;-77
2022/03/14 11:08:34;;;;;;;3.03;1.30;;;;;;;14.34;51.84;98258.28;4931828;28;20638;-78
2022/03/14 11:11:26;;;;;;;6.57;1.35;;;;;;;14.65;51.35;98263.97;4952557;28;20203;-79
2022/03/14 11:13:55;;;;;;;3.90;1.90;;;;;;;14.98;49.26;98253.34;4958060;28;20261;-79
2022/03/14 11:16:34;;;;;;;2.97;1.10;;;;;;;14.71;48.58;98263.00;4932173;28;20211;-77
2022/03/14 11:19:00;;;;;;;5.72;1.48;;;;;;;14.61;48.83;98253.94;4931273;28;20159;-78
2022/03/14 11:21:26;;;;;;;3.28;1.40;;;;;;;14.47;50.24;98259.78;4932406;28;20289;-78
2022/03/14 11:23:53;;;;;;;3.20;1.45;;;;;;;14.39;48.48;98259.16;4930204;28;20662;-77
2022/03/14 11:26:21;;;;;;;5.07;1.80;;;;;;;14.42;48.69;98253.41;4915502;28;20232;-80
2022/03/14 11:28:49;;;;;;;3.10;1.65;;;;;;;14.59;49.42;98255.25;4931714;28;20188;-78
2022/03/14 11:31:19;;;;;;;5.63;1.95;;;;;;;14.65;47.51;98258.72;4925074;28;20243;-78